createdAt,value
2018-08-22T00:00:42.170Z,101929.80
2018-08-22T00:03:11.614Z,101932.22
2018-08-22T00:05:40.047Z,101926.06
2018-08-22T00:08:08.579Z,101928.98
2018-08-22T00:10:38.044Z,101926.44
2018-08-22T00:13:06.544Z,101915.16
2018-08-22T00:15:34.911Z,101915.16
2018-08-22T00:18:03.465Z,101917.47
2018-08-22T00:20:31.926Z,101917.21
2018-08-22T00:23:00.361Z,101918.67
2018-08-22T00:25:29.275Z,101924.63
2018-08-22T00:27:57.870Z,101923.05
2018-08-22T00:30:26.276Z,101924.84
2018-08-22T00:32:54.709Z,101917.34
2018-08-22T00:35:23.145Z,101912.86
2018-08-22T00:37:51.827Z,101910.56
2018-08-22T00:40:20.271Z,101911.64
2018-08-22T00:42:48.778Z,101908.03
2018-08-22T00:45:17.546Z,101904.41
2018-08-22T00:47:46.027Z,101896.62
2018-08-22T00:50:14.877Z,101896.14
2018-08-22T00:52:44.410Z,101899.05
2018-08-22T00:55:12.872Z,101897.01
2018-08-22T00:57:41.412Z,101900.26
2018-08-22T01:00:10.052Z,101899.88
2018-08-22T01:02:38.639Z,101902.89
2018-08-22T01:05:07.713Z,101899.73
2018-08-22T01:07:36.190Z,101899.27
2018-08-22T01:10:05.438Z,101900.34
2018-08-22T01:12:34.351Z,101895.39
2018-08-22T01:15:09.709Z,101894.40
2018-08-22T01:17:38.359Z,101897.31
2018-08-22T01:20:07.525Z,101894.28
2018-08-22T01:22:36.230Z,101899.97
2018-08-22T01:25:04.812Z,101899.27
2018-08-22T01:27:33.514Z,101896.72
2018-08-22T01:30:02.136Z,101900.34
2018-08-22T01:32:31.589Z,101885.95
2018-08-22T01:35:00.645Z,101893.06
2018-08-22T01:37:29.195Z,101887.28
2018-08-22T01:39:57.655Z,101890.90
2018-08-22T01:42:26.101Z,101885.91
2018-08-22T01:44:54.863Z,101880.71
2018-08-22T01:47:23.338Z,101885.44
2018-08-22T01:49:51.794Z,101883.98
2018-08-22T01:52:20.180Z,101882.16
2018-08-22T01:54:49.060Z,101885.05
2018-08-22T01:57:17.726Z,101882.27
2018-08-22T01:59:46.493Z,101882.86
2018-08-22T02:02:15.080Z,101877.53
2018-08-22T02:04:43.774Z,101878.16
2018-08-22T02:07:12.297Z,101878.36
2018-08-22T02:09:40.950Z,101877.77
2018-08-22T02:12:09.414Z,101877.39
2018-08-22T02:14:38.082Z,101873.16
2018-08-22T02:17:06.601Z,101861.44
2018-08-22T02:19:35.418Z,101862.39
2018-08-22T02:22:03.777Z,101865.17
2018-08-22T02:24:32.273Z,101859.02
2018-08-22T02:27:00.490Z,101853.70
2018-08-22T02:29:29.183Z,101852.36
2018-08-22T02:32:04.046Z,101846.91
2018-08-22T02:34:32.480Z,101848.70
2018-08-22T02:37:00.879Z,101844.59
2018-08-22T02:39:29.493Z,101843.63
2018-08-22T02:41:58.016Z,101842.42
2018-08-22T02:44:26.588Z,101842.40
2018-08-22T02:46:55.278Z,101841.32
2018-08-22T02:49:23.652Z,101842.66
2018-08-22T02:51:52.135Z,101842.03
2018-08-22T02:54:20.979Z,101847.85
2018-08-22T02:56:49.437Z,101845.23
2018-08-22T02:59:18.039Z,101853.70
2018-08-22T03:01:46.447Z,101857.68
2018-08-22T03:04:14.862Z,101851.66
2018-08-22T03:06:43.616Z,101856.73
2018-08-22T03:09:12.040Z,101860.22
2018-08-22T03:11:40.851Z,101857.80
2018-08-22T03:14:09.332Z,101849.45
2018-08-22T03:16:37.812Z,101854.52
2018-08-22T03:19:06.159Z,101856.93
2018-08-22T03:21:34.574Z,101848.95
2018-08-22T03:24:03.296Z,101848.49
2018-08-22T03:26:32.057Z,101852.34
2018-08-22T03:29:00.617Z,101854.75
2018-08-22T03:31:29.076Z,101854.87
2018-08-22T03:33:57.917Z,101854.87
2018-08-22T03:36:26.314Z,101855.82
2018-08-22T03:38:55.191Z,101853.78
2018-08-22T03:41:23.734Z,101848.20
2018-08-22T03:43:52.269Z,101849.04
2018-08-22T03:46:20.704Z,101841.42
2018-08-22T03:48:49.412Z,101843.96
2018-08-22T03:51:17.988Z,101845.75
2018-08-22T03:53:46.464Z,101839.97
2018-08-22T03:56:14.964Z,101841.22
2018-08-22T03:58:43.435Z,101845.83
2018-08-22T04:01:12.120Z,101847.67
2018-08-22T04:03:40.630Z,101848.88
2018-08-22T04:06:09.118Z,101844.40
2018-08-22T04:08:37.777Z,101843.31
2018-08-22T04:11:06.295Z,101843.19
2018-08-22T04:13:34.886Z,101844.02
2018-08-22T04:16:03.681Z,101840.89
2018-08-22T04:18:32.389Z,101841.34
2018-08-22T04:21:00.929Z,101840.97
2018-08-22T04:23:29.467Z,101837.72
2018-08-22T04:25:57.900Z,101845.70
2018-08-22T04:28:26.904Z,101841.34
2018-08-22T04:30:55.043Z,101843.14
2018-08-22T04:33:23.837Z,101846.28
2018-08-22T04:35:52.654Z,101843.34
2018-08-22T04:38:21.171Z,101847.13
2018-08-22T04:40:49.991Z,101853.59
2018-08-22T04:43:18.743Z,101845.03
2018-08-22T04:45:47.337Z,101847.67
2018-08-22T04:48:16.174Z,101845.16
2018-08-22T04:50:44.568Z,101855.78
2018-08-22T04:53:13.491Z,101843.94
2018-08-22T04:55:41.979Z,101850.08
2018-08-22T04:58:11.235Z,101849.38
2018-08-22T05:00:39.715Z,101848.72
2018-08-22T05:03:08.225Z,101847.02
2018-08-22T05:05:36.442Z,101841.94
2018-08-22T05:08:05.663Z,101850.43
2018-08-22T05:10:34.291Z,101845.13
2018-08-22T05:13:03.014Z,101848.11
2018-08-22T05:15:32.196Z,101847.30
2018-08-22T05:18:00.878Z,101844.15
2018-08-22T05:20:30.243Z,101845.42
2018-08-22T05:22:58.931Z,101847.27
2018-08-22T05:25:27.576Z,101848.36
2018-08-22T05:27:57.263Z,101839.65
2018-08-22T05:30:25.853Z,101841.25
2018-08-22T05:32:54.405Z,101843.24
2018-08-22T05:35:23.481Z,101844.24
2018-08-22T05:37:52.202Z,101847.62
2018-08-22T05:40:22.258Z,101854.91
2018-08-22T05:42:50.958Z,101846.09
2018-08-22T05:45:19.550Z,101847.31
2018-08-22T05:47:48.283Z,101842.82
2018-08-22T05:50:17.309Z,101845.48
2018-08-22T05:52:50.701Z,101841.53
2018-08-22T05:55:22.356Z,101846.48
2018-08-22T05:57:50.884Z,101833.79
2018-08-22T06:00:19.672Z,101852.17
2018-08-22T06:02:48.237Z,101842.79
2018-08-22T06:05:17.303Z,101841.57
2018-08-22T06:07:45.800Z,101839.61
2018-08-22T06:10:15.092Z,101841.05
2018-08-22T06:12:44.679Z,101838.50
2018-08-22T06:15:14.075Z,101838.49
2018-08-22T06:17:42.698Z,101838.72
2018-08-22T06:20:11.568Z,101843.55
2018-08-22T06:22:41.287Z,101842.94
2018-08-22T06:25:11.221Z,101845.33
2018-08-22T06:27:40.417Z,101844.48
2018-08-22T06:30:11.169Z,101844.33
2018-08-22T06:32:44.271Z,101843.83
2018-08-22T06:35:13.898Z,101847.05
2018-08-22T06:37:42.537Z,101841.19
2018-08-22T06:40:11.771Z,101841.16
2018-08-22T06:42:40.410Z,101845.69
2018-08-22T06:45:14.119Z,101837.42
2018-08-22T06:47:43.691Z,101833.22
2018-08-22T06:50:13.589Z,101835.19
2018-08-22T06:52:42.719Z,101836.60
2018-08-22T06:55:11.516Z,101840.88
2018-08-22T06:57:41.155Z,101837.64
2018-08-22T07:00:11.954Z,101837.95
2018-08-22T07:02:44.633Z,101836.88
2018-08-22T07:05:14.064Z,101839.41
2018-08-22T07:07:42.966Z,101838.98
2018-08-22T07:10:11.845Z,101837.98
2018-08-22T07:12:40.634Z,101839.02
2018-08-22T07:15:09.212Z,101843.02
2018-08-22T07:17:41.183Z,101840.34
2018-08-22T07:20:12.843Z,101841.18
2018-08-22T07:22:41.536Z,101844.85
2018-08-22T07:25:10.138Z,101848.73
2018-08-22T07:27:38.838Z,101849.75
2018-08-22T07:30:08.855Z,101848.45
2018-08-22T07:32:37.539Z,101858.83
2018-08-22T07:35:06.412Z,101858.36
2018-08-22T07:37:35.795Z,101853.05
2018-08-22T07:40:05.099Z,101859.05
2018-08-22T07:42:34.531Z,101859.69
2018-08-22T07:45:04.391Z,101850.47
2018-08-22T07:47:33.064Z,101857.52
2018-08-22T07:50:02.183Z,101853.80
2018-08-22T07:52:30.869Z,101853.09
2018-08-22T07:54:59.660Z,101848.53
2018-08-22T07:57:29.093Z,101849.30
2018-08-22T07:59:57.656Z,101852.17
2018-08-22T08:02:26.435Z,101854.70
2018-08-22T08:04:55.019Z,101850.99
2018-08-22T08:07:24.431Z,101853.66
2018-08-22T08:09:53.525Z,101852.16
2018-08-22T08:12:26.789Z,101855.08
2018-08-22T08:15:02.005Z,101841.61
2018-08-22T08:17:31.246Z,101850.98
2018-08-22T08:20:00.902Z,101855.67
2018-08-22T08:22:29.627Z,101851.30
2018-08-22T08:24:58.351Z,101845.27
2018-08-22T08:27:27.667Z,101847.23
2018-08-22T08:29:56.429Z,101838.77
2018-08-22T08:32:25.532Z,101847.50
2018-08-22T08:34:55.068Z,101846.23
2018-08-22T08:37:23.824Z,101842.30
2018-08-22T08:39:52.912Z,101845.58
2018-08-22T08:42:21.891Z,101848.86
2018-08-22T08:44:51.124Z,101843.31
2018-08-22T08:47:20.772Z,101848.16
2018-08-22T08:49:49.354Z,101843.48
2018-08-22T08:52:18.113Z,101845.62
2018-08-22T08:54:48.108Z,101849.09
2018-08-22T08:57:17.868Z,101847.53
2018-08-22T08:59:47.187Z,101847.41
2018-08-22T09:02:18.347Z,101842.34
2018-08-22T09:04:47.162Z,101844.98
2018-08-22T09:07:16.775Z,101844.13
2018-08-22T09:09:46.538Z,101847.83
2018-08-22T09:12:15.285Z,101845.25
2018-08-22T09:14:44.587Z,101840.60
2018-08-22T09:17:13.287Z,101842.44
2018-08-22T09:19:42.303Z,101840.39
2018-08-22T09:22:11.364Z,101846.84
2018-08-22T09:24:42.818Z,101835.94
2018-08-22T09:27:11.157Z,101839.63
2018-08-22T09:29:39.832Z,101844.80
2018-08-22T09:32:08.435Z,101846.17
2018-08-22T09:34:37.019Z,101827.16
2018-08-22T09:37:05.609Z,101843.48
2018-08-22T09:39:34.977Z,101836.02
2018-08-22T09:42:04.843Z,101835.04
2018-08-22T09:44:33.520Z,101837.22
2018-08-22T09:47:02.622Z,101833.89
2018-08-22T09:49:32.056Z,101827.85
2018-08-22T09:52:01.450Z,101822.98
2018-08-22T09:54:30.083Z,101827.36
2018-08-22T09:56:58.903Z,101822.98
2018-08-22T09:59:27.757Z,101815.58
2018-08-22T10:01:57.551Z,101811.97
2018-08-22T10:04:26.841Z,101816.43
2018-08-22T10:06:55.817Z,101817.09
2018-08-22T10:09:24.755Z,101809.22
2018-08-22T10:11:55.958Z,101805.94
2018-08-22T10:14:25.825Z,101801.09
2018-08-22T10:16:54.725Z,101801.55
2018-08-22T10:19:24.759Z,101807.44
2018-08-22T10:21:54.019Z,101802.31
2018-08-22T10:24:23.535Z,101801.15
2018-08-22T10:26:52.720Z,101797.80
2018-08-22T10:29:21.387Z,101797.87
2018-08-22T10:31:50.266Z,101795.50
2018-08-22T10:34:19.147Z,101786.59
2018-08-22T10:36:48.482Z,101782.47
2018-08-22T10:39:17.186Z,101788.41
2018-08-22T10:41:46.495Z,101794.52
2018-08-22T10:44:15.747Z,101795.20
2018-08-22T10:46:44.383Z,101807.42
2018-08-22T10:49:13.480Z,101799.22
2018-08-22T10:51:43.445Z,101802.61
2018-08-22T10:54:13.575Z,101798.08
2018-08-22T10:56:43.027Z,101783.25
2018-08-22T10:59:11.709Z,101789.96
2018-08-22T11:01:40.359Z,101790.13
2018-08-22T11:04:09.736Z,101784.60
2018-08-22T11:06:41.560Z,101788.10
2018-08-22T11:09:11.406Z,101786.23
2018-08-22T11:11:41.462Z,101791.12
2018-08-22T11:14:10.466Z,101799.08
2018-08-22T11:16:39.214Z,101791.16
2018-08-22T11:19:07.944Z,101793.31
2018-08-22T11:21:54.910Z,101794.84
2018-08-22T11:24:41.130Z,101801.09
2018-08-22T11:27:27.433Z,101804.13
2018-08-22T11:30:13.091Z,101793.01
2018-08-22T11:32:58.999Z,101801.58
2018-08-22T11:35:26.005Z,101805.65
2018-08-22T11:37:55.429Z,101802.53
2018-08-22T11:40:24.685Z,101795.97
2018-08-22T11:42:53.406Z,101794.12
2018-08-22T11:45:22.211Z,101804.25
2018-08-22T11:47:51.176Z,101802.20
2018-08-22T11:50:21.076Z,101803.27
2018-08-22T11:52:51.176Z,101812.98
2018-08-22T11:55:19.784Z,101800.55
2018-08-22T11:57:49.651Z,101810.13
2018-08-22T12:00:19.029Z,101806.59
2018-08-22T12:02:47.697Z,101809.77
2018-08-22T12:05:17.231Z,101801.86
2018-08-22T12:07:46.655Z,101803.39
2018-08-22T12:10:16.059Z,101799.50
2018-08-22T12:12:45.573Z,101793.98
2018-08-22T12:15:14.256Z,101802.61
2018-08-22T12:17:42.883Z,101797.56
2018-08-22T12:20:11.900Z,101793.19
2018-08-22T12:22:41.421Z,101795.87
2018-08-22T12:25:10.726Z,101801.88
2018-08-22T12:27:40.685Z,101791.45
2018-08-22T12:30:12.438Z,101799.33
2018-08-22T12:32:41.501Z,101795.48
2018-08-22T12:35:11.230Z,101783.89
2018-08-22T12:37:41.982Z,101777.16
2018-08-22T12:40:11.553Z,101786.27
2018-08-22T12:42:41.368Z,101780.70
2018-08-22T12:45:11.092Z,101777.32
2018-08-22T12:47:41.117Z,101783.70
2018-08-22T12:50:09.794Z,101784.88
2018-08-22T12:52:39.141Z,101779.34
2018-08-22T12:55:13.293Z,101778.00
2018-08-22T12:57:43.476Z,101778.97
2018-08-22T13:00:15.082Z,101782.70
2018-08-22T13:02:48.965Z,101778.30
2018-08-22T13:05:20.166Z,101775.66
2018-08-22T13:07:50.056Z,101778.65
2018-08-22T13:10:18.960Z,101774.50
2018-08-22T13:12:47.822Z,101774.30
2018-08-22T13:15:19.071Z,101769.89
2018-08-22T13:17:47.847Z,101772.94
2018-08-22T13:20:16.402Z,101767.41
2018-08-22T13:22:46.992Z,101763.19
2018-08-22T13:25:16.650Z,101774.27
2018-08-22T13:27:46.390Z,101759.27
2018-08-22T13:30:15.061Z,101759.66
2018-08-22T13:32:48.791Z,101761.18
2018-08-22T13:35:18.239Z,101768.74
2018-08-22T13:37:47.575Z,101766.94
2018-08-22T13:40:17.134Z,101762.02
2018-08-22T13:42:45.486Z,101754.12
2018-08-22T13:45:14.806Z,101753.30
2018-08-22T13:47:43.503Z,101757.33
2018-08-22T13:50:13.292Z,101754.80
2018-08-22T13:52:42.919Z,101759.83
2018-08-22T13:55:12.453Z,101762.70
2018-08-22T13:57:42.372Z,101756.28
2018-08-22T14:00:11.218Z,101750.94
2018-08-22T14:02:40.621Z,101747.21
2018-08-22T14:05:10.231Z,101749.06
2018-08-22T14:07:38.967Z,101758.14
2018-08-22T14:10:09.969Z,101753.59
2018-08-22T14:12:39.585Z,101749.39
2018-08-22T14:15:09.155Z,101755.62
2018-08-22T14:17:40.491Z,101752.58
2018-08-22T14:20:11.203Z,101746.55
2018-08-22T14:22:39.876Z,101746.20
2018-08-22T14:25:12.444Z,101752.85
2018-08-22T14:27:41.322Z,101752.91
2018-08-22T14:30:10.266Z,101748.37
2018-08-22T14:32:38.994Z,101752.59
2018-08-22T14:35:08.887Z,101750.56
2018-08-22T14:37:40.912Z,101756.38
2018-08-22T14:40:10.721Z,101749.42
2018-08-22T14:42:39.821Z,101745.38
2018-08-22T14:45:10.818Z,101747.09
2018-08-22T14:47:41.048Z,101737.42
2018-08-22T14:50:10.784Z,101744.50
2018-08-22T14:52:40.581Z,101742.69
2018-08-22T14:55:09.750Z,101742.19
2018-08-22T14:57:40.482Z,101737.05
2018-08-22T15:00:10.781Z,101741.50
2018-08-22T15:02:40.088Z,101733.84
2018-08-22T15:05:09.805Z,101727.94
2018-08-22T15:07:38.975Z,101728.76
2018-08-22T15:10:09.032Z,101731.27
2018-08-22T15:12:37.795Z,101726.36
2018-08-22T15:15:10.894Z,101723.56
2018-08-22T15:17:39.942Z,101714.18
2018-08-22T15:20:12.019Z,101722.89
2018-08-22T15:22:41.643Z,101718.53
2018-08-22T15:25:10.942Z,101716.16
2018-08-22T15:27:39.561Z,101725.84
2018-08-22T15:30:09.750Z,101727.12
2018-08-22T15:32:39.009Z,101722.55
2018-08-22T15:35:07.701Z,101723.47
2018-08-22T15:37:37.375Z,101729.52
2018-08-22T15:40:06.731Z,101719.39
2018-08-22T15:42:36.749Z,101727.70
2018-08-22T15:45:06.259Z,101723.66
2018-08-22T15:47:35.094Z,101719.99
2018-08-22T15:50:04.276Z,101718.61
2018-08-22T15:52:33.870Z,101709.94
2018-08-22T15:55:15.774Z,101702.89
2018-08-22T15:57:57.880Z,101711.26
2018-08-22T16:00:34.185Z,101705.55
2018-08-22T16:03:04.615Z,101698.37
2018-08-22T16:05:34.509Z,101705.05
2018-08-22T16:08:03.748Z,101702.93
2018-08-22T16:10:32.451Z,101700.11
2018-08-22T16:13:01.727Z,101699.86
2018-08-22T16:15:41.258Z,101699.84
2018-08-22T16:18:09.961Z,101694.07
2018-08-22T16:20:49.674Z,101684.09
2018-08-22T16:23:19.413Z,101675.78
2018-08-22T16:25:50.873Z,101678.86
2018-08-22T16:28:20.041Z,101674.70
2018-08-22T16:30:57.041Z,101670.48
2018-08-22T16:33:21.541Z,101674.06
2018-08-22T16:35:50.437Z,101671.32
2018-08-22T16:38:19.428Z,101670.59
2018-08-22T16:40:52.873Z,101675.70
2018-08-22T16:43:41.129Z,101673.20
2018-08-22T16:46:13.663Z,101671.94
2018-08-22T16:48:48.416Z,101669.83
2018-08-22T16:51:18.563Z,101667.22
2018-08-22T16:54:02.498Z,101662.41
2018-08-22T16:56:33.121Z,101666.31
2018-08-22T16:59:11.098Z,101650.39
2018-08-22T17:01:45.763Z,101653.16
2018-08-22T17:04:14.558Z,101654.80
2018-08-22T17:06:44.006Z,101655.83
2018-08-22T17:09:13.028Z,101653.03
2018-08-22T17:11:41.844Z,101653.02
2018-08-22T17:14:10.748Z,101652.67
2018-08-22T17:16:40.025Z,101653.33
2018-08-22T17:19:08.999Z,101651.59
2018-08-22T17:21:37.941Z,101649.64
2018-08-22T17:24:07.096Z,101652.05
2018-08-22T17:26:36.576Z,101657.01
2018-08-22T17:29:07.481Z,101657.20
2018-08-22T17:31:36.285Z,101663.71
2018-08-22T17:34:05.744Z,101658.17
2018-08-22T17:36:35.095Z,101655.00
2018-08-22T17:39:04.225Z,101658.69
2018-08-22T17:41:34.508Z,101660.88
2018-08-22T17:44:10.676Z,101661.11
2018-08-22T17:46:47.140Z,101659.80
2018-08-22T17:49:15.751Z,101653.77
2018-08-22T17:52:13.229Z,101664.81
2018-08-22T17:54:42.430Z,101663.36
2018-08-22T17:57:23.107Z,101665.20
2018-08-22T17:59:51.843Z,101666.19
2018-08-22T18:02:21.907Z,101668.57
2018-08-22T18:05:03.960Z,101673.83
2018-08-22T18:07:33.137Z,101668.71
2018-08-22T18:10:04.310Z,101663.71
2018-08-22T18:12:33.359Z,101661.56
2018-08-22T18:15:04.172Z,101671.64
2018-08-22T18:17:34.000Z,101666.56
2018-08-22T18:20:04.036Z,101673.67
2018-08-22T18:22:34.248Z,101669.12
2018-08-22T18:25:04.501Z,101676.05
2018-08-22T18:27:33.207Z,101678.55
2018-08-22T18:30:04.731Z,101674.72
2018-08-22T18:32:33.964Z,101672.62
2018-08-22T18:35:06.514Z,101669.16
2018-08-22T18:37:36.347Z,101674.00
2018-08-22T18:40:29.897Z,101676.16
2018-08-22T18:43:01.058Z,101680.08
2018-08-22T18:45:30.084Z,101684.63
2018-08-22T18:48:00.860Z,101688.70
2018-08-22T18:50:29.394Z,101687.88
2018-08-22T18:53:01.239Z,101687.58
2018-08-22T18:55:31.492Z,101691.95
2018-08-22T18:58:01.981Z,101686.05
2018-08-22T19:00:34.906Z,101687.30
2018-08-22T19:03:04.523Z,101684.77
2018-08-22T19:05:35.676Z,101691.30
2018-08-22T19:08:09.957Z,101689.98
2018-08-22T19:13:15.485Z,101700.20
2018-08-22T19:15:49.732Z,101702.05
2018-08-22T19:18:18.439Z,101698.97
2018-08-22T19:20:47.433Z,101694.70
2018-08-22T19:23:15.891Z,101702.20
2018-08-22T19:25:47.774Z,101697.86
2018-08-22T19:28:16.648Z,101702.11
2018-08-22T19:30:45.196Z,101696.30
2018-08-22T19:33:18.120Z,101700.77
2018-08-22T19:35:47.173Z,101698.09
2018-08-22T19:38:18.087Z,101698.50
2018-08-22T19:40:46.896Z,101695.38
2018-08-22T19:43:15.276Z,101696.20
2018-08-22T19:45:43.761Z,101696.11
2018-08-22T19:48:12.319Z,101691.91
2018-08-22T19:50:40.806Z,101697.25
2018-08-22T19:53:09.497Z,101699.45
2018-08-22T19:55:38.306Z,101695.78
2018-08-22T19:58:07.537Z,101696.55
2018-08-22T20:00:36.040Z,101699.58
2018-08-22T20:03:04.748Z,101703.74
2018-08-22T20:05:50.446Z,101701.70
2018-08-22T20:08:23.793Z,101705.40
2018-08-22T20:10:52.533Z,101705.16
2018-08-22T20:13:21.015Z,101694.53
2018-08-22T20:15:50.136Z,101706.52
2018-08-22T20:18:19.041Z,101701.73
2018-08-22T20:20:47.526Z,101702.47
2018-08-22T20:23:16.296Z,101703.22
2018-08-22T20:25:44.621Z,101704.77
2018-08-22T20:28:13.151Z,101707.06
2018-08-22T20:30:41.621Z,101705.05
2018-08-22T20:33:10.235Z,101711.94
2018-08-22T20:35:40.657Z,101712.42
2018-08-22T20:38:11.136Z,101719.92
2018-08-22T20:40:40.344Z,101722.72
2018-08-22T20:43:18.232Z,101723.20
2018-08-22T20:45:47.640Z,101730.48
2018-08-22T20:48:18.913Z,101724.92
2018-08-22T20:50:47.615Z,101722.14
2018-08-22T20:53:18.783Z,101720.69
2018-08-22T20:55:47.618Z,101719.94
2018-08-22T20:58:25.827Z,101717.03
2018-08-22T21:00:54.440Z,101716.91
2018-08-22T21:03:23.012Z,101718.86
2018-08-22T21:05:51.808Z,101714.00
2018-08-22T21:08:22.406Z,101723.09
2018-08-22T21:10:51.136Z,101714.50
2018-08-22T21:13:27.359Z,101713.72
2018-08-22T21:15:56.369Z,101710.69
2018-08-22T21:18:25.121Z,101709.23
2018-08-22T21:20:54.339Z,101705.36
2018-08-22T21:23:23.452Z,101708.27
2018-08-22T21:25:54.100Z,101704.53
2018-08-22T21:28:29.829Z,101706.81
2018-08-22T21:30:59.768Z,101706.31
2018-08-22T21:33:29.536Z,101706.56
2018-08-22T21:35:57.870Z,101703.14
2018-08-22T21:38:26.472Z,101702.31
2018-08-22T21:40:55.127Z,101711.35
2018-08-22T21:43:23.699Z,101703.39
2018-08-22T21:45:52.694Z,101704.82
2018-08-22T21:48:23.903Z,101705.66
2018-08-22T21:50:52.723Z,101702.30
2018-08-22T21:53:21.487Z,101697.79
2018-08-22T21:55:52.318Z,101694.52
2018-08-22T21:58:21.080Z,101699.58
2018-08-22T22:00:49.848Z,101700.30
2018-08-22T22:03:24.286Z,101695.58
2018-08-22T22:06:08.663Z,101691.58
2018-08-22T22:08:43.183Z,101691.89
2018-08-22T22:11:13.760Z,101691.64
2018-08-22T22:13:43.162Z,101693.55
2018-08-22T22:16:11.789Z,101688.84
2018-08-22T22:18:40.461Z,101687.98
2018-08-22T22:21:12.927Z,101692.33
2018-08-22T22:23:48.065Z,101693.66
2018-08-22T22:26:17.868Z,101692.43
2018-08-22T22:28:47.722Z,101690.13
2018-08-22T22:31:17.460Z,101690.13
2018-08-22T22:33:52.224Z,101693.97
2018-08-22T22:36:21.406Z,101693.11
2018-08-22T22:38:50.048Z,101692.13
2018-08-22T22:41:19.090Z,101688.84
2018-08-22T22:43:47.961Z,101688.27
2018-08-22T22:46:16.401Z,101694.27
2018-08-22T22:48:45.310Z,101699.32
2018-08-22T22:51:13.994Z,101690.81
2018-08-22T22:53:43.160Z,101693.01
2018-08-22T22:56:11.974Z,101684.81
2018-08-22T22:58:40.861Z,101689.95
2018-08-22T23:01:09.605Z,101682.97
2018-08-22T23:03:39.951Z,101688.63
2018-08-22T23:06:08.789Z,101690.06
2018-08-22T23:08:37.452Z,101696.63
2018-08-22T23:11:06.544Z,101690.95
2018-08-22T23:13:35.355Z,101688.45
2018-08-22T23:16:04.888Z,101692.36
2018-08-22T23:18:35.473Z,101686.72
2018-08-22T23:21:03.706Z,101688.61
2018-08-22T23:23:34.515Z,101681.60
2018-08-22T23:26:13.571Z,101677.55
2018-08-22T23:28:43.723Z,101676.27
2018-08-22T23:31:18.883Z,101675.92
2018-08-22T23:33:47.851Z,101680.73
2018-08-22T23:36:16.577Z,101673.25
2018-08-22T23:38:45.191Z,101670.83
2018-08-22T23:41:13.982Z,101664.57
2018-08-22T23:43:50.447Z,101665.59
2018-08-22T23:46:18.995Z,101661.02
2018-08-22T23:48:55.415Z,101656.35
2018-08-22T23:51:24.299Z,101657.49
2018-08-22T23:53:56.965Z,101658.41
2018-08-22T23:56:27.677Z,101654.05
2018-08-22T23:58:58.591Z,101649.58
